Time;durP1;ratioP1;P1;durP2;ratioP2;P2;SDS_P1;SDS_P2;PMS_P1;PMS_P2;Temp;Humidity;BMP_temperature;BMP_pressure;BME280_temperature;BME280_humidity;BME280_pressure;Samples;Min_cycle;Max_cycle;Signal;HPM_P1;HPM_P2
2022/03/29 00:00:13;;;;;;;2.75;1.55;;;6.10;66.90;;;;;;1881041;76;21034;-56
2022/03/29 00:02:41;;;;;;;2.08;0.95;;;6.10;66.90;;;;;;1927548;74;21097;-56
2022/03/29 00:05:11;;;;;;;2.35;1.10;;;6.10;67.00;;;;;;1881010;76;21001;-55
2022/03/29 00:07:40;;;;;;;6.40;1.80;;;6.10;66.80;;;;;;1927606;73;21104;-56
2022/03/29 00:10:10;;;;;;;13.43;1.75;;;6.10;66.90;;;;;;1881012;76;21010;-56
2022/03/29 00:12:39;;;;;;;8.43;1.60;;;6.10;66.90;;;;;;1927600;74;21022;-56
2022/03/29 00:15:09;;;;;;;6.78;1.92;;;6.10;66.70;;;;;;1881112;75;20998;-56
2022/03/29 00:17:39;;;;;;;3.37;1.17;;;6.10;66.70;;;;;;1927534;74;21088;-56
2022/03/29 00:20:08;;;;;;;2.15;1.17;;;6.10;66.70;;;;;;1881082;75;21022;-56
2022/03/29 00:22:38;;;;;;;4.25;1.12;;;6.10;66.70;;;;;;1927491;74;21018;-56
2022/03/29 00:25:08;;;;;;;2.15;1.00;;;6.10;66.60;;;;;;1881127;76;21112;-54
2022/03/29 00:27:37;;;;;;;3.10;1.55;;;6.10;66.60;;;;;;1927788;74;21112;-57
2022/03/29 00:30:11;;;;;;;5.37;1.57;;;6.10;66.70;;;;;;1881122;76;21037;-55
2022/03/29 00:32:40;;;;;;;8.48;1.52;;;6.10;66.50;;;;;;1927754;74;21007;-55
2022/03/29 00:35:10;;;;;;;4.40;1.50;;;6.10;66.60;;;;;;1881124;76;21030;-55
2022/03/29 00:37:40;;;;;;;4.08;1.80;;;6.10;66.50;;;;;;1927751;74;21014;-55
2022/03/29 00:40:12;;;;;;;5.45;2.02;;;6.20;66.60;;;;;;1881115;76;21026;-56
2022/03/29 00:42:41;;;;;;;6.70;2.00;;;6.10;66.60;;;;;;1927664;74;21087;-57
2022/03/29 00:45:10;;;;;;;4.80;2.33;;;6.10;66.70;;;;;;1881222;76;21005;-56
2022/03/29 00:47:40;;;;;;;8.08;2.33;;;6.10;66.60;;;;;;1927797;74;21022;-56
2022/03/29 00:50:10;;;;;;;10.13;2.42;;;6.10;66.70;;;;;;1881081;76;21100;-57
2022/03/29 00:52:40;;;;;;;6.62;2.25;;;6.10;66.60;;;;;;1927657;73;20998;-57
2022/03/29 00:55:11;;;;;;;6.25;1.77;;;6.10;66.70;;;;;;1881082;76;21026;-57
2022/03/29 00:57:41;;;;;;;8.28;2.65;;;6.10;66.80;;;;;;1927798;74;21035;-56
2022/03/29 01:00:11;;;;;;;3.02;1.60;;;6.10;66.80;;;;;;1881162;76;21042;-57
2022/03/29 01:02:41;;;;;;;3.35;1.52;;;6.10;66.70;;;;;;1927642;74;21018;-56
2022/03/29 01:05:11;;;;;;;3.33;1.60;;;6.10;66.80;;;;;;1881124;76;21010;-56
2022/03/29 01:07:41;;;;;;;7.97;2.00;;;6.10;66.70;;;;;;1927751;74;21000;-56
2022/03/29 01:10:10;;;;;;;3.92;1.45;;;6.10;66.80;;;;;;1881205;76;21022;-56
2022/03/29 01:12:40;;;;;;;3.35;1.25;;;6.10;66.70;;;;;;1927651;74;21404;-56
2022/03/29 01:15:10;;;;;;;2.52;1.30;;;6.10;66.70;;;;;;1881103;75;21113;-57
2022/03/29 01:17:39;;;;;;;3.40;1.37;;;6.10;66.90;;;;;;1927613;74;21080;-57
2022/03/29 01:20:13;;;;;;;2.52;1.70;;;6.10;66.70;;;;;;1881131;76;21025;-57
2022/03/29 01:22:44;;;;;;;1.47;1.37;;;6.10;66.70;;;;;;1927610;74;21018;-57
2022/03/29 01:25:19;;;;;;;3.98;1.67;;;6.10;66.70;;;;;;1881127;76;21022;-57
2022/03/29 01:27:50;;;;;;;10.50;2.05;;;6.10;66.80;;;;;;1918360;73;21056;-57
2022/03/29 01:30:21;;;;;;;5.87;2.00;;;6.10;66.70;;;;;;1917728;74;21410;-57
2022/03/29 01:32:52;;;;;;;6.00;1.45;;;6.10;66.70;;;;;;1869044;77;21018;-57
2022/03/29 01:35:25;;;;;;;2.60;1.72;;;6.00;66.70;;;;;;1905435;74;21089;-57
2022/03/29 01:37:55;;;;;;;7.28;2.35;;;6.10;66.70;;;;;;1869006;77;20998;-57
2022/03/29 01:40:26;;;;;;;5.97;1.00;;;6.10;66.90;;;;;;1905460;75;21019;-55
2022/03/29 01:42:58;;;;;;;3.47;1.67;;;6.10;66.70;;;;;;1868928;77;21088;-55
2022/03/29 01:45:29;;;;;;;2.87;1.77;;;6.00;66.60;;;;;;1905377;75;21082;-55
2022/03/29 01:47:58;;;;;;;2.42;1.40;;;6.00;66.60;;;;;;1905372;75;21024;-55
2022/03/29 01:50:28;;;;;;;7.05;1.77;;;6.10;66.80;;;;;;1905303;75;21007;-56
2022/03/29 01:52:57;;;;;;;3.62;1.40;;;6.00;66.60;;;;;;1869054;77;21088;-56
2022/03/29 01:55:26;;;;;;;3.47;1.57;;;6.10;66.70;;;;;;1905319;75;21058;-57
2022/03/29 01:57:55;;;;;;;2.17;1.37;;;6.10;66.70;;;;;;1868929;77;21116;-56
2022/03/29 02:00:31;;;;;;;2.92;1.32;;;6.10;66.80;;;;;;1905410;75;21044;-56
2022/03/29 02:03:02;;;;;;;10.03;2.47;;;6.10;66.80;;;;;;1869029;77;21026;-57
2022/03/29 02:05:32;;;;;;;4.87;1.35;;;6.00;66.70;;;;;;1904876;74;21513;-57
2022/03/29 02:08:01;;;;;;;5.90;2.30;;;6.10;66.90;;;;;;1868985;77;21026;-57
2022/03/29 02:10:31;;;;;;;7.17;1.95;;;6.10;67.00;;;;;;1905374;75;21043;-57
2022/03/29 02:13:01;;;;;;;6.87;2.05;;;6.10;67.10;;;;;;1869061;77;21116;-56
2022/03/29 02:15:30;;;;;;;3.20;1.60;;;6.00;67.00;;;;;;1905287;75;21019;-57
2022/03/29 02:17:59;;;;;;;9.20;1.80;;;6.00;67.20;;;;;;1868917;77;21092;-57
2022/03/29 02:20:29;;;;;;;12.35;2.30;;;6.00;67.10;;;;;;1905341;75;21019;-57
2022/03/29 02:23:14;;;;;;;11.63;1.57;;;6.00;67.10;;;;;;1868888;77;21027;-56
2022/03/29 02:25:37;;;;;;;4.12;1.35;;;6.00;67.10;;;;;;1904048;74;21039;-57
2022/03/29 02:28:06;;;;;;;11.22;1.77;;;6.10;67.10;;;;;;1877158;75;21097;-56
2022/03/29 02:30:36;;;;;;;9.03;2.08;;;6.10;67.30;;;;;;1927726;74;21356;-57
2022/03/29 02:33:07;;;;;;;4.17;1.60;;;6.00;67.20;;;;;;1881203;76;21104;-57
2022/03/29 02:35:36;;;;;;;2.20;1.20;;;6.00;67.30;;;;;;1927588;74;21128;-57
2022/03/29 02:38:06;;;;;;;3.33;1.42;;;6.00;67.50;;;;;;1881197;75;21025;-57
2022/03/29 02:40:36;;;;;;;10.68;2.00;;;6.00;67.60;;;;;;1927642;73;21030;-57
2022/03/29 02:43:05;;;;;;;13.08;2.65;;;6.10;67.60;;;;;;1881092;76;21088;-57
2022/03/29 02:45:34;;;;;;;2.85;1.67;;;6.00;67.40;;;;;;1927757;74;21022;-56
2022/03/29 02:48:04;;;;;;;2.67;1.50;;;6.00;67.50;;;;;;1881071;76;21002;-57
2022/03/29 02:50:33;;;;;;;5.90;1.67;;;6.00;67.40;;;;;;1927637;74;21065;-56
2022/03/29 02:53:04;;;;;;;3.02;1.15;;;6.00;67.40;;;;;;1881212;76;21108;-56
2022/03/29 02:55:34;;;;;;;3.20;2.00;;;6.00;67.70;;;;;;1927659;74;21034;-57
2022/03/29 02:58:03;;;;;;;3.35;1.57;;;6.00;67.80;;;;;;1881247;76;21022;-57
2022/03/29 03:00:33;;;;;;;5.75;1.67;;;6.00;67.80;;;;;;1927544;74;21039;-57
2022/03/29 03:03:03;;;;;;;2.37;1.70;;;6.00;67.70;;;;;;1881081;76;21038;-57
2022/03/29 03:05:32;;;;;;;4.55;1.80;;;6.00;68.00;;;;;;1927668;74;21022;-56
2022/03/29 03:08:02;;;;;;;3.33;1.30;;;6.00;68.00;;;;;;1881202;75;21084;-57
2022/03/29 03:10:32;;;;;;;8.35;2.22;;;6.00;68.10;;;;;;1927704;74;21031;-57
2022/03/29 03:13:01;;;;;;;2.72;1.70;;;6.00;68.10;;;;;;1881211;76;20994;-57
2022/03/29 03:15:31;;;;;;;2.22;1.30;;;6.00;68.60;;;;;;1927661;74;21018;-57
2022/03/29 03:18:02;;;;;;;1.27;1.05;;;5.90;68.60;;;;;;1881305;76;21038;-56
2022/03/29 03:20:31;;;;;;;10.53;2.05;;;5.90;68.70;;;;;;1927704;74;21093;-57
2022/03/29 03:23:01;;;;;;;6.03;1.62;;;6.00;68.90;;;;;;1881218;76;21022;-57
2022/03/29 03:25:31;;;;;;;2.62;2.00;;;6.00;68.70;;;;;;1927682;73;21080;-56
2022/03/29 03:28:00;;;;;;;2.37;1.37;;;6.00;69.10;;;;;;1876364;76;21149;-57
2022/03/29 03:30:29;;;;;;;6.20;1.57;;;6.10;69.10;;;;;;1905263;75;21101;-57
2022/03/29 03:32:59;;;;;;;3.10;1.62;;;6.10;69.00;;;;;;1869033;75;21104;-56
2022/03/29 03:35:29;;;;;;;13.75;1.77;;;6.20;68.70;;;;;;1905230;75;21109;-56
2022/03/29 03:37:58;;;;;;;1.72;1.10;;;6.20;68.80;;;;;;1905406;75;21039;-57
2022/03/29 03:40:28;;;;;;;3.05;1.72;;;6.30;68.60;;;;;;1868918;75;21030;-56
2022/03/29 03:42:57;;;;;;;7.30;2.10;;;6.30;68.20;;;;;;1905361;75;21027;-56
2022/03/29 03:45:26;;;;;;;6.17;1.62;;;6.40;68.00;;;;;;1905295;75;21071;-56
2022/03/29 03:47:56;;;;;;;1.70;1.10;;;6.40;67.90;;;;;;1869008;77;21112;-56
2022/03/29 03:50:26;;;;;;;1.20;0.98;;;6.40;67.90;;;;;;1905404;75;21019;-56
2022/03/29 03:52:55;;;;;;;3.50;1.12;;;6.40;67.80;;;;;;1868903;75;21022;-56
2022/03/29 03:55:24;;;;;;;2.02;1.50;;;6.40;67.60;;;;;;1905309;75;21105;-56
2022/03/29 03:57:54;;;;;;;3.60;1.70;;;6.40;67.70;;;;;;1868976;77;21022;-56
2022/03/29 04:00:24;;;;;;;3.45;1.17;;;6.40;67.70;;;;;;1905297;74;21023;-56
2022/03/29 04:02:54;;;;;;;7.25;1.57;;;6.40;67.60;;;;;;1869035;77;21082;-56
2022/03/29 04:05:23;;;;;;;1.50;1.40;;;6.50;67.70;;;;;;1905484;75;21027;-57
2022/03/29 04:07:53;;;;;;;3.08;1.37;;;6.50;67.60;;;;;;1869080;77;21073;-57
2022/03/29 04:10:22;;;;;;;9.20;2.08;;;6.50;67.40;;;;;;1905388;75;21073;-57
2022/03/29 04:12:51;;;;;;;5.08;1.35;;;6.50;67.40;;;;;;1868933;77;21022;-57
2022/03/29 04:15:21;;;;;;;4.28;2.67;;;6.60;67.20;;;;;;1905304;75;21023;-58
2022/03/29 04:17:50;;;;;;;5.37;1.45;;;6.60;66.60;;;;;;1868877;77;21125;-57
2022/03/29 04:20:19;;;;;;;7.45;1.90;;;6.70;66.70;;;;;;1905327;75;21015;-54
2022/03/29 04:22:49;;;;;;;10.00;2.33;;;6.70;66.10;;;;;;1869117;77;21022;-54
2022/03/29 04:25:18;;;;;;;11.30;2.67;;;6.70;65.80;;;;;;1905347;75;21081;-55
2022/03/29 04:27:48;;;;;;;4.78;1.70;;;6.80;65.70;;;;;;1868828;76;21042;-55
2022/03/29 04:30:17;;;;;;;4.87;1.87;;;6.90;65.00;;;;;;1905262;75;21114;-56
2022/03/29 04:32:46;;;;;;;1.52;1.05;;;6.90;65.20;;;;;;1868990;77;21093;-56
2022/03/29 04:35:16;;;;;;;4.78;1.62;;;7.00;64.40;;;;;;1905408;75;21081;-56
2022/03/29 04:37:46;;;;;;;4.12;1.62;;;7.10;62.90;;;;;;1868999;75;21084;-56
2022/03/29 04:40:15;;;;;;;4.80;1.25;;;7.20;63.20;;;;;;1905480;75;21047;-56
2022/03/29 04:42:49;;;;;;;3.55;1.00;;;7.20;60.80;;;;;;1868911;77;21080;-56
2022/03/29 04:45:19;;;;;;;1.40;1.22;;;7.30;61.10;;;;;;1905366;75;20999;-55
2022/03/29 04:47:49;;;;;;;5.92;1.80;;;7.40;58.90;;;;;;1905471;75;21015;-56
2022/03/29 04:50:18;;;;;;;6.17;2.20;;;7.50;60.80;;;;;;1868916;77;21026;-56
2022/03/29 04:52:48;;;;;;;1.65;1.15;;;7.60;58.60;;;;;;1905592;74;21024;-56
2022/03/29 04:55:18;;;;;;;5.22;1.77;;;7.60;58.80;;;;;;1869082;77;21042;-55
2022/03/29 04:57:49;;;;;;;5.47;1.72;;;7.70;58.20;;;;;;1905420;75;21082;-55
2022/03/29 05:00:25;;;;;;;4.55;1.22;;;7.80;57.90;;;;;;1868889;77;21022;-56
2022/03/29 05:02:51;;;;;;;7.95;1.60;;;7.90;56.20;;;;;;1904281;74;21059;-55
2022/03/29 05:05:20;;;;;;;13.58;2.98;;;7.90;56.90;;;;;;1869123;77;21030;-56
2022/03/29 05:07:50;;;;;;;9.38;2.25;;;8.00;57.20;;;;;;1905592;75;21081;-56
2022/03/29 05:10:19;;;;;;;3.60;1.37;;;8.10;55.00;;;;;;1905393;75;21023;-56
2022/03/29 05:12:51;;;;;;;4.22;1.40;;;8.10;55.00;;;;;;1905400;75;21153;-56
2022/03/29 05:15:21;;;;;;;5.47;1.02;;;8.10;55.20;;;;;;1905469;75;21024;-56
2022/03/29 05:17:50;;;;;;;3.98;1.50;;;8.20;54.30;;;;;;1869002;76;21026;-56
2022/03/29 05:20:20;;;;;;;4.20;1.35;;;8.30;53.00;;;;;;1905393;74;21031;-56
2022/03/29 05:22:51;;;;;;;4.95;1.77;;;8.30;54.70;;;;;;1869067;77;21026;-56
2022/03/29 05:25:24;;;;;;;19.55;1.20;;;8.40;53.50;;;;;;1905322;74;21023;-56
2022/03/29 05:27:57;;;;;;;2.08;1.30;;;8.50;53.00;;;;;;1905664;74;21027;-57
2022/03/29 05:30:26;;;;;;;4.70;2.00;;;8.50;55.50;;;;;;1883134;76;21049;-57
2022/03/29 05:33:00;;;;;;;3.42;1.27;;;8.60;54.90;;;;;;1872199;77;21059;-57
2022/03/29 05:35:30;;;;;;;1.95;1.40;;;8.70;53.90;;;;;;1872316;77;21015;-57
2022/03/29 05:38:01;;;;;;;12.45;2.42;;;8.70;54.00;;;;;;1872303;77;21027;-57
2022/03/29 05:40:31;;;;;;;4.62;1.82;;;8.80;54.00;;;;;;1872260;76;21114;-57
2022/03/29 05:43:00;;;;;;;7.20;1.60;;;8.90;54.20;;;;;;1872256;77;21035;-57
2022/03/29 05:45:30;;;;;;;7.47;1.57;;;9.00;50.30;;;;;;1872173;76;21011;-57
2022/03/29 05:50:47;;;;;;;5.95;1.47;;;9.10;52.90;;;;;;1872338;77;21112;-56
2022/03/29 05:53:17;;;;;;;2.45;1.50;;;9.20;52.50;;;;;;1872169;77;21078;-56
2022/03/29 05:55:48;;;;;;;65.95;7.83;;;9.20;53.00;;;;;;1872102;76;21102;-56
2022/03/29 05:58:17;;;;;;;9.55;2.27;;;9.30;52.30;;;;;;1872221;77;21562;-56
2022/03/29 06:00:47;;;;;;;1.92;1.10;;;9.40;52.10;;;;;;1872293;77;21152;-56
2022/03/29 06:03:16;;;;;;;2.65;1.40;;;9.40;49.80;;;;;;1872148;77;21031;-56
2022/03/29 06:05:46;;;;;;;6.67;3.00;;;9.50;50.80;;;;;;1872377;77;21121;-56
2022/03/29 06:08:15;;;;;;;4.35;1.25;;;9.50;50.70;;;;;;1872279;77;21034;-56
2022/03/29 06:10:45;;;;;;;15.30;2.40;;;9.60;51.10;;;;;;1872196;77;21070;-56
2022/03/29 06:13:14;;;;;;;9.50;3.55;;;9.60;50.90;;;;;;1872008;77;21522;-55
2022/03/29 06:15:43;;;;;;;4.20;1.72;;;9.70;51.30;;;;;;1871999;77;21097;-58
2022/03/29 06:18:13;;;;;;;5.70;2.42;;;9.70;51.80;;;;;;1871140;76;21026;-57
2022/03/29 06:20:42;;;;;;;3.83;1.55;;;9.80;51.20;;;;;;1856496;77;21016;-57
2022/03/29 06:23:11;;;;;;;8.38;2.20;;;9.90;50.40;;;;;;1854681;77;21012;-57
2022/03/29 06:25:41;;;;;;;2.37;1.20;;;9.90;51.10;;;;;;1905636;75;21019;-58
2022/03/29 06:28:10;;;;;;;6.35;2.33;;;10.00;51.00;;;;;;1906873;75;21183;-58
2022/03/29 06:30:40;;;;;;;7.95;2.02;;;10.00;50.20;;;;;;1910868;74;21057;-57
2022/03/29 06:33:10;;;;;;;3.67;2.42;;;10.10;51.20;;;;;;1924349;74;21081;-58
2022/03/29 06:35:39;;;;;;;8.13;1.25;;;10.10;51.20;;;;;;1919513;74;21024;-57
2022/03/29 06:38:09;;;;;;;3.45;1.30;;;10.20;49.50;;;;;;1906090;74;21035;-55
2022/03/29 06:40:38;;;;;;;2.42;1.47;;;10.20;50.10;;;;;;1907846;74;21071;-54
2022/03/29 06:43:08;;;;;;;4.33;1.72;;;10.30;50.10;;;;;;1892968;74;21149;-56
2022/03/29 06:45:37;;;;;;;4.20;1.42;;;10.30;50.20;;;;;;1890758;74;21099;-56
2022/03/29 06:48:07;;;;;;;2.77;1.50;;;10.50;50.30;;;;;;1890948;74;21004;-57
2022/03/29 06:50:36;;;;;;;6.95;2.12;;;10.50;49.30;;;;;;1909480;74;21068;-57
2022/03/29 06:53:06;;;;;;;3.20;1.80;;;10.60;48.00;;;;;;1923615;74;21019;-57
2022/03/29 06:55:36;;;;;;;5.08;2.30;;;10.60;47.20;;;;;;1923795;74;21066;-58
2022/03/29 06:58:06;;;;;;;2.98;1.02;;;10.60;48.50;;;;;;1923619;74;21011;-57
2022/03/29 07:00:36;;;;;;;4.50;1.22;;;10.70;44.40;;;;;;1815565;78;21034;-58
2022/03/29 07:03:05;;;;;;;7.72;1.70;;;10.80;46.40;;;;;;1891059;76;21084;-58
2022/03/29 07:05:38;;;;;;;3.58;1.37;;;10.80;43.80;;;;;;1890964;76;21038;-58
2022/03/29 07:08:06;;;;;;;3.65;1.20;;;10.80;44.50;;;;;;1914186;74;21421;-58
2022/03/29 07:13:37;;;;;;;10.65;1.35;;;11.00;45.10;;;;;;1899956;74;21067;-49
2022/03/29 07:16:07;;;;;;;9.18;1.30;;;11.00;44.60;;;;;;1907866;74;21432;-53
2022/03/29 07:18:37;;;;;;;11.83;1.62;;;11.10;43.80;;;;;;1907482;74;21046;-51
2022/03/29 07:21:06;;;;;;;2.87;0.90;;;11.20;42.90;;;;;;1907308;74;21046;-52
2022/03/29 07:23:36;;;;;;;4.20;1.70;;;11.20;44.30;;;;;;1921184;74;21119;-52
2022/03/29 07:26:05;;;;;;;3.62;1.50;;;11.20;42.30;;;;;;1923681;74;21086;-49
2022/03/29 07:28:35;;;;;;;2.25;1.22;;;11.30;43.30;;;;;;1910992;74;21069;-49
2022/03/29 07:31:04;;;;;;;4.00;1.27;;;11.30;43.70;;;;;;1915030;74;21126;-50
2022/03/29 07:33:34;;;;;;;2.83;1.12;;;11.40;43.10;;;;;;1922505;74;21085;-49
2022/03/29 07:36:03;;;;;;;3.00;1.12;;;11.40;43.00;;;;;;1923337;74;21080;-50
2022/03/29 07:38:33;;;;;;;3.12;1.47;;;11.50;42.70;;;;;;1923221;74;21010;-55
2022/03/29 07:41:02;;;;;;;1.75;1.25;;;11.50;43.40;;;;;;1923509;74;21323;-50
2022/03/29 07:43:31;;;;;;;2.90;0.88;;;11.50;43.10;;;;;;1923562;74;21453;-51
2022/03/29 07:46:00;;;;;;;9.85;2.70;;;11.60;40.80;;;;;;1923697;74;21023;-50
2022/03/29 07:48:30;;;;;;;6.30;2.22;;;11.70;42.20;;;;;;1923574;74;21143;-52
2022/03/29 07:50:59;;;;;;;5.47;1.30;;;11.70;41.40;;;;;;1923838;74;21068;-53
2022/03/29 07:53:29;;;;;;;13.93;1.55;;;11.80;41.90;;;;;;1923784;74;21031;-49
2022/03/29 07:55:59;;;;;;;4.97;1.55;;;11.90;41.40;;;;;;1923628;74;21058;-53
2022/03/29 07:58:28;;;;;;;6.10;2.00;;;11.90;41.20;;;;;;1923591;74;21135;-50
2022/03/29 08:00:57;;;;;;;3.22;1.60;;;11.90;41.10;;;;;;1917486;74;21078;-52
2022/03/29 08:03:33;;;;;;;5.17;1.15;;;12.00;41.80;;;;;;1921585;74;21007;-47
2022/03/29 08:05:58;;;;;;;6.28;1.35;;;12.10;40.10;;;;;;1922956;74;21102;-50
2022/03/29 08:08:27;;;;;;;1.35;0.80;;;12.20;38.90;;;;;;1923821;74;21026;-48
2022/03/29 08:10:57;;;;;;;5.28;1.70;;;12.30;36.80;;;;;;1923806;74;21038;-50
2022/03/29 08:13:27;;;;;;;4.10;1.25;;;12.30;38.60;;;;;;1923848;74;21117;-48
2022/03/29 08:15:58;;;;;;;6.53;1.10;;;12.40;38.90;;;;;;1923967;74;21023;-48
2022/03/29 08:18:27;;;;;;;7.83;1.75;;;12.40;39.70;;;;;;1923741;74;21022;-49
2022/03/29 08:20:56;;;;;;;2.35;1.40;;;12.40;38.20;;;;;;1897681;74;21112;-49
2022/03/29 08:23:26;;;;;;;7.55;1.55;;;12.50;38.90;;;;;;1846195;78;21033;-53
2022/03/29 08:25:56;;;;;;;8.33;1.40;;;12.50;36.00;;;;;;1846121;78;21042;-48
2022/03/29 08:28:25;;;;;;;4.70;1.22;;;12.60;36.10;;;;;;1846116;78;21096;-50
2022/03/29 08:30:55;;;;;;;10.90;2.00;;;12.60;37.30;;;;;;1840066;77;21170;-49
2022/03/29 08:33:24;;;;;;;5.72;1.40;;;12.70;36.20;;;;;;1858119;77;21092;-50
2022/03/29 08:35:53;;;;;;;3.77;1.10;;;12.70;35.20;;;;;;1915971;75;21082;-49
2022/03/29 08:38:24;;;;;;;4.92;1.55;;;12.70;34.30;;;;;;1903431;75;21024;-52
2022/03/29 08:40:56;;;;;;;3.40;0.80;;;12.80;35.40;;;;;;1902386;74;21055;-50
2022/03/29 08:43:27;;;;;;;30.77;3.25;;;12.80;35.50;;;;;;1906451;75;21059;-49
2022/03/29 08:45:57;;;;;;;12.00;1.98;;;12.80;34.30;;;;;;1903549;75;21051;-50
2022/03/29 08:48:28;;;;;;;1.40;0.82;;;12.90;35.50;;;;;;1902707;75;21099;-47
2022/03/29 08:50:59;;;;;;;5.85;1.25;;;12.90;35.40;;;;;;1904260;75;21149;-52
2022/03/29 08:53:29;;;;;;;7.45;1.92;;;12.90;35.90;;;;;;1905702;75;21058;-52
2022/03/29 08:55:58;;;;;;;4.08;1.77;;;13.00;35.80;;;;;;1904246;75;21020;-52
2022/03/29 08:58:27;;;;;;;21.02;2.58;;;13.10;36.00;;;;;;1902269;75;21153;-50
2022/03/29 09:00:57;;;;;;;8.40;1.27;;;13.10;34.20;;;;;;1904920;75;21066;-49
2022/03/29 09:03:26;;;;;;;1.47;0.85;;;13.20;34.00;;;;;;1905715;75;21103;-49
2022/03/29 09:06:09;;;;;;;1.35;0.90;;;13.20;32.90;;;;;;1904405;75;21022;-51
2022/03/29 09:08:46;;;;;;;4.20;1.35;;;13.20;33.70;;;;;;1905870;75;21074;-52
2022/03/29 09:11:16;;;;;;;5.47;1.27;;;13.30;33.60;;;;;;1903663;74;21090;-49
2022/03/29 09:13:46;;;;;;;14.75;1.92;;;13.30;32.60;;;;;;1905371;75;21059;-49
2022/03/29 09:16:32;;;;;;;7.58;1.72;;;13.40;32.30;;;;;;1906788;75;21122;-50
2022/03/29 09:19:02;;;;;;;4.15;1.62;;;13.40;32.90;;;;;;1905634;75;21344;-51
2022/03/29 09:21:33;;;;;;;7.72;2.02;;;13.40;31.80;;;;;;1905586;75;21084;-48
2022/03/29 09:24:14;;;;;;;5.85;1.20;;;13.50;33.00;;;;;;1903498;75;21068;-49
2022/03/29 09:26:46;;;;;;;18.92;1.87;;;13.50;33.20;;;;;;1905615;75;21066;-48
2022/03/29 09:29:22;;;;;;;4.87;1.50;;;13.60;33.10;;;;;;1904783;74;21006;-50
2022/03/29 09:32:17;;;;;;;6.47;3.50;;;13.60;32.70;;;;;;1909811;74;21030;-53
2022/03/29 09:34:42;;;;;;;5.85;2.62;;;13.70;32.00;;;;;;1913901;74;21595;-50
2022/03/29 09:37:11;;;;;;;4.47;1.25;;;13.70;31.90;;;;;;1901630;74;21036;-46
2022/03/29 09:39:42;;;;;;;4.25;1.10;;;13.80;32.60;;;;;;1894100;74;21032;-49
2022/03/29 09:42:17;;;;;;;3.35;1.10;;;13.80;32.30;;;;;;1923891;74;21018;-46
2022/03/29 09:44:50;;;;;;;14.90;1.62;;;13.90;32.60;;;;;;1922361;74;21485;-48
2022/03/29 09:47:21;;;;;;;4.35;1.25;;;14.00;30.30;;;;;;1890941;76;21089;-48
2022/03/29 09:49:55;;;;;;;3.80;1.30;;;14.00;31.80;;;;;;1891025;76;21042;-49
2022/03/29 09:52:32;;;;;;;2.52;1.30;;;14.00;31.90;;;;;;1891230;76;21081;-51
2022/03/29 09:55:20;;;;;;;7.83;1.92;;;14.10;31.60;;;;;;1890998;76;21061;-49
2022/03/29 09:57:55;;;;;;;22.60;2.45;;;14.20;30.90;;;;;;1890783;76;21076;-47
2022/03/29 10:00:40;;;;;;;6.97;1.30;;;14.20;30.20;;;;;;1891664;75;21002;-47
2022/03/29 10:03:09;;;;;;;;;;;14.30;31.20;;;;;;1894472;76;21082;-48
2022/03/29 10:05:42;;;;;;;5.47;1.20;;;14.20;28.40;;;;;;1891664;76;20368;-49
2022/03/29 10:11:04;;;;;;;13.78;2.10;;;14.30;30.40;;;;;;1891688;76;21042;-50
2022/03/29 10:13:36;;;;;;;1.42;0.90;;;14.30;31.10;;;;;;1891657;76;20998;-49
2022/03/29 10:16:07;;;;;;;7.47;1.95;;;14.40;29.90;;;;;;1891312;75;21105;-46
2022/03/29 10:18:38;;;;;;;13.00;4.00;;;14.50;30.00;;;;;;1891587;75;21418;-48
2022/03/29 10:21:09;;;;;;;10.80;2.02;;;14.50;30.20;;;;;;1891554;76;21027;-47
2022/03/29 10:23:39;;;;;;;5.45;0.98;;;14.60;29.40;;;;;;1891637;75;21002;-49
2022/03/29 10:26:10;;;;;;;3.10;1.65;;;14.60;29.90;;;;;;1891671;76;21273;-48
2022/03/29 10:28:40;;;;;;;6.10;2.10;;;14.70;30.30;;;;;;1891527;75;21143;-51
2022/03/29 10:31:29;;;;;;;11.68;4.60;;;14.70;30.00;;;;;;1891620;76;21052;-48
2022/03/29 10:34:19;;;;;;;4.78;1.95;;;14.80;29.70;;;;;;1846245;75;21097;-47
2022/03/29 10:37:09;;;;;;;9.13;1.67;;;14.80;29.90;;;;;;1891656;76;21123;-50
2022/03/29 10:40:02;;;;;;;4.25;1.30;;;14.90;29.70;;;;;;1891655;76;21077;-52
2022/03/29 10:42:41;;;;;;;5.83;2.52;;;14.90;28.40;;;;;;1890400;75;21038;-48
2022/03/29 10:45:18;;;;;;;4.50;1.50;;;14.90;29.40;;;;;;1891537;76;21021;-49
2022/03/29 10:48:02;;;;;;;7.30;2.20;;;15.00;29.40;;;;;;1891509;76;21084;-48
2022/03/29 10:50:58;;;;;;;12.50;2.12;;;15.10;29.80;;;;;;1891625;76;21186;-49
2022/03/29 10:53:30;;;;;;;8.93;2.30;;;15.10;28.30;;;;;;1891705;76;21120;-48
2022/03/29 10:56:19;;;;;;;9.65;2.10;;;15.20;29.00;;;;;;1891699;76;21397;-47
2022/03/29 10:59:06;;;;;;;3.40;1.65;;;15.20;28.90;;;;;;1891637;76;21457;-51
2022/03/29 11:01:39;;;;;;;9.03;1.40;;;15.20;28.00;;;;;;1891633;76;21538;-48
2022/03/29 11:04:10;;;;;;;4.72;1.75;;;15.20;27.50;;;;;;1891540;76;21030;-49
2022/03/29 11:06:41;;;;;;;6.33;1.82;;;15.30;28.10;;;;;;1891295;75;21578;-51
2022/03/29 11:09:18;;;;;;;24.32;2.40;;;15.30;28.20;;;;;;1885377;76;21112;-47
2022/03/29 11:11:50;;;;;;;6.25;2.25;;;15.20;27.70;;;;;;1891596;76;21026;-48
2022/03/29 11:14:37;;;;;;;8.60;2.45;;;15.20;28.10;;;;;;1891531;76;21139;-47
2022/03/29 11:17:12;;;;;;;10.28;2.00;;;15.10;28.00;;;;;;1891453;76;21046;-51
2022/03/29 11:19:53;;;;;;;5.72;1.75;;;15.10;28.50;;;;;;1891686;76;21092;-47
2022/03/29 11:22:36;;;;;;;3.90;1.75;;;15.20;28.70;;;;;;1891475;76;21046;-48
2022/03/29 11:25:09;;;;;;;7.87;2.08;;;15.10;28.60;;;;;;1891509;76;21084;-50
2022/03/29 11:27:39;;;;;;;14.65;2.27;;;15.20;29.10;;;;;;1891528;76;21448;-49
2022/03/29 11:30:10;;;;;;;3.77;2.45;;;15.20;28.50;;;;;;1891525;76;21026;-47
2022/03/29 11:32:45;;;;;;;11.18;5.55;;;15.20;27.80;;;;;;1885439;75;21122;-47
2022/03/29 11:35:15;;;;;;;;;;;15.30;28.70;;;;;;1875632;75;21101;-49
2022/03/29 11:37:49;;;;;;;5.12;1.70;;;15.30;27.60;;;;;;1872810;75;20115;-50
2022/03/29 11:40:19;;;;;;;7.70;2.95;;;15.30;28.70;;;;;;1872919;75;21015;-51
2022/03/29 11:42:53;;;;;;;3.02;1.37;;;15.30;28.20;;;;;;1872786;77;21031;-51
2022/03/29 11:45:24;;;;;;;5.70;2.20;;;15.30;27.60;;;;;;1873135;77;21019;-49
2022/03/29 11:47:55;;;;;;;5.33;1.62;;;15.30;28.30;;;;;;1872776;77;21365;-49
2022/03/29 11:50:44;;;;;;;6.47;1.65;;;15.30;27.90;;;;;;1872931;77;21047;-48
2022/03/29 11:53:22;;;;;;;6.15;2.10;;;15.30;28.50;;;;;;1872798;75;21067;-50
2022/03/29 11:56:08;;;;;;;9.78;2.60;;;15.20;28.60;;;;;;1872870;76;21552;-50
2022/03/29 11:58:43;;;;;;;6.08;3.15;;;15.10;28.30;;;;;;1872754;77;21031;-48
2022/03/29 12:01:15;;;;;;;;;;;15.00;28.30;;;;;;1875708;75;21007;-51
2022/03/29 12:03:46;;;;;;;4.15;1.47;;;14.90;27.80;;;;;;1872757;77;20104;-47
2022/03/29 12:06:18;;;;;;;6.22;2.00;;;14.80;28.80;;;;;;1872940;76;21469;-48
2022/03/29 12:09:09;;;;;;;9.28;2.08;;;14.80;28.60;;;;;;1872859;77;21023;-47
2022/03/29 12:11:45;;;;;;;12.03;2.17;;;14.70;28.50;;;;;;1872807;77;21019;-50
2022/03/29 12:14:16;;;;;;;3.85;2.33;;;14.70;28.60;;;;;;1872880;77;21466;-47
2022/03/29 12:16:52;;;;;;;7.95;1.60;;;14.60;28.90;;;;;;1872860;77;20995;-48
2022/03/29 12:19:25;;;;;;;7.08;1.80;;;14.50;28.40;;;;;;1872871;77;21027;-47
2022/03/29 12:22:03;;;;;;;3.33;1.87;;;14.50;29.00;;;;;;1872887;76;21512;-51
2022/03/29 12:24:42;;;;;;;11.95;2.85;;;14.50;29.10;;;;;;1872283;76;21175;-49
2022/03/29 12:27:14;;;;;;;2.17;1.70;;;14.40;29.30;;;;;;1872968;77;21035;-48
2022/03/29 12:29:48;;;;;;;4.28;1.47;;;14.40;29.40;;;;;;1873120;76;21536;-47
2022/03/29 12:32:18;;;;;;;19.25;2.72;;;14.40;29.10;;;;;;1872987;76;21113;-52
2022/03/29 12:34:56;;;;;;;7.45;2.90;;;14.40;29.50;;;;;;1891030;76;21030;-50
2022/03/29 12:37:29;;;;;;;4.47;1.60;;;14.40;29.50;;;;;;1891086;75;21042;-46
2022/03/29 12:40:04;;;;;;;7.08;2.08;;;14.40;29.50;;;;;;1891626;76;21018;-49
2022/03/29 12:42:34;;;;;;;4.47;1.70;;;14.50;29.70;;;;;;1891725;75;20995;-47
2022/03/29 12:45:07;;;;;;;3.87;1.65;;;14.50;29.40;;;;;;1891755;76;21002;-51
2022/03/29 12:47:36;;;;;;;5.05;2.00;;;14.60;29.60;;;;;;1891721;76;21518;-50
2022/03/29 12:50:06;;;;;;;8.28;2.17;;;14.60;29.80;;;;;;1891847;76;21109;-50
2022/03/29 12:52:43;;;;;;;5.70;2.20;;;14.70;29.80;;;;;;1891671;76;21096;-48
2022/03/29 12:55:20;;;;;;;6.33;3.45;;;14.60;29.90;;;;;;1891693;76;21104;-47
2022/03/29 12:57:50;;;;;;;2.83;1.57;;;14.60;30.10;;;;;;1891618;76;21096;-48
2022/03/29 13:00:20;;;;;;;8.70;2.77;;;14.60;30.40;;;;;;1891703;76;21057;-50
2022/03/29 13:02:53;;;;;;;4.72;2.20;;;14.60;30.60;;;;;;1891635;76;21147;-48
2022/03/29 13:05:23;;;;;;;7.95;2.75;;;14.60;30.80;;;;;;1891594;75;21485;-48
2022/03/29 13:07:57;;;;;;;4.35;2.62;;;14.70;31.00;;;;;;1891554;76;21018;-47
2022/03/29 13:10:42;;;;;;;3.02;1.80;;;14.70;30.90;;;;;;1891781;76;21465;-48
2022/03/29 13:13:18;;;;;;;4.35;1.77;;;14.70;31.00;;;;;;1891743;76;21007;-48
2022/03/29 13:16:09;;;;;;;;;;;14.80;30.70;;;;;;1894381;76;21042;-51
2022/03/29 13:18:52;;;;;;;4.22;1.95;;;14.80;30.90;;;;;;1891475;76;20106;-49
2022/03/29 13:21:32;;;;;;;7.12;2.12;;;14.80;31.40;;;;;;1891262;75;21163;-51